Time;durP1;ratioP1;P1;durP2;ratioP2;P2;SDS_P1;SDS_P2;PMS_P1;PMS_P2;Temp;Humidity;BMP_temperature;BMP_pressure;BME280_temperature;BME280_humidity;BME280_pressure;Samples;Min_cycle;Max_cycle;Signal;HPM_P1;HPM_P2
2022/09/28 00:00:06;;;;;;;;;;;13.70;68.20;;;;;;5002623;28;20008;-84
2022/09/28 00:02:38;;;;;;;;;;;13.70;68.20;;;;;;5026137;28;19920;-84
2022/09/28 00:05:03;;;;;;;;;;;13.70;68.20;;;;;;5040137;28;19920;-83
2022/09/28 00:07:29;;;;;;;;;;;13.70;68.20;;;;;;5032042;28;20630;-84
2022/09/28 00:09:54;;;;;;;;;;;13.60;68.20;;;;;;5027388;28;20282;-84
2022/09/28 00:12:21;;;;;;;;;;;13.70;68.30;;;;;;5003373;28;19924;-84
2022/09/28 00:14:46;;;;;;;;;;;13.60;68.20;;;;;;5028800;28;20008;-84
2022/09/28 00:17:12;;;;;;;;;;;13.60;68.20;;;;;;5038899;28;20004;-85
2022/09/28 00:19:39;;;;;;;;;;;13.60;68.20;;;;;;5026584;28;19921;-84
2022/09/28 00:22:05;;;;;;;;;;;13.60;68.20;;;;;;5015442;28;19991;-84
2022/09/28 00:24:30;;;;;;;;;;;13.60;68.20;;;;;;5026232;28;19917;-84
2022/09/28 00:26:59;;;;;;;;;;;13.60;68.20;;;;;;5041477;28;20765;-84
2022/09/28 00:29:27;;;;;;;;;;;13.60;68.20;;;;;;5039068;28;19955;-84
2022/09/28 00:32:02;;;;;;;;;;;13.60;68.30;;;;;;5052902;28;19940;-84
2022/09/28 00:34:32;;;;;;;;;;;13.60;68.30;;;;;;5036428;28;19913;-84
2022/09/28 00:36:58;;;;;;;;;;;13.60;68.30;;;;;;5052659;28;20003;-83
2022/09/28 00:39:25;;;;;;;;;;;13.60;68.30;;;;;;5037121;28;19909;-84
2022/09/28 00:41:51;;;;;;;;;;;13.60;68.30;;;;;;5036833;28;20299;-83
2022/09/28 00:44:23;;;;;;;;;;;13.60;68.30;;;;;;5019803;28;20383;-84
2022/09/28 00:46:50;;;;;;;;;;;13.50;68.30;;;;;;5052923;28;19917;-83
2022/09/28 00:49:16;;;;;;;;;;;13.50;68.30;;;;;;5037107;28;19919;-83
2022/09/28 00:51:43;;;;;;;;;;;13.60;68.30;;;;;;5035984;28;19913;-84
2022/09/28 00:54:09;;;;;;;;;;;13.50;68.30;;;;;;5035650;28;19909;-85
2022/09/28 00:56:36;;;;;;;;;;;13.60;68.30;;;;;;5035502;28;19962;-85
2022/09/28 00:59:03;;;;;;;;;;;13.50;68.30;;;;;;5035351;28;19909;-85
2022/09/28 01:01:29;;;;;;;;;;;13.50;68.30;;;;;;5035428;28;20008;-85
2022/09/28 01:03:57;;;;;;;;;;;13.50;68.30;;;;;;5035143;28;20004;-85
2022/09/28 01:06:26;;;;;;;;;;;13.50;68.30;;;;;;5051379;28;20374;-84
2022/09/28 01:08:54;;;;;;;;;;;13.50;68.30;;;;;;5035379;28;19909;-84
2022/09/28 01:11:20;;;;;;;;;;;13.50;68.30;;;;;;5035391;28;19936;-85
2022/09/28 01:13:47;;;;;;;;;;;13.50;68.30;;;;;;5035241;28;19913;-85
2022/09/28 01:16:13;;;;;;;;;;;13.50;68.30;;;;;;5035349;28;19943;-85
2022/09/28 01:18:46;;;;;;;;;;;13.50;68.30;;;;;;5035306;28;19916;-85
2022/09/28 01:21:15;;;;;;;;;;;13.40;68.30;;;;;;5052211;28;19920;-85
2022/09/28 01:23:43;;;;;;;;;;;13.50;68.40;;;;;;5034724;28;19928;-85
2022/09/28 01:26:22;;;;;;;;;;;13.40;68.30;;;;;;5051888;28;19980;-83
2022/09/28 01:28:52;;;;;;;;;;;13.40;68.30;;;;;;5036001;28;20364;-83
2022/09/28 01:31:20;;;;;;;;;;;13.40;68.30;;;;;;5036376;28;19909;-83
2022/09/28 01:34:08;;;;;;;;;;;13.40;68.30;;;;;;5035230;28;19917;-83
2022/09/28 01:36:37;;;;;;;;;;;13.40;68.30;;;;;;5035654;28;20365;-84
2022/09/28 01:39:13;;;;;;;;;;;13.40;68.30;;;;;;5034780;28;19941;-84
2022/09/28 01:41:41;;;;;;;;;;;13.40;68.30;;;;;;5035528;28;19913;-84
2022/09/28 01:44:13;;;;;;;;;;;13.40;68.40;;;;;;5035388;28;19913;-85
2022/09/28 01:46:43;;;;;;;;;;;13.40;68.40;;;;;;5034508;28;19921;-85
2022/09/28 01:49:17;;;;;;;;;;;13.40;68.40;;;;;;5051814;28;19913;-84
2022/09/28 01:51:48;;;;;;;;;;;13.30;68.30;;;;;;5036151;28;19958;-85
2022/09/28 01:54:27;;;;;;;;;;;13.30;68.30;;;;;;5050910;28;20028;-84
2022/09/28 01:56:55;;;;;;;;;;;13.30;68.40;;;;;;5035504;28;19940;-85
2022/09/28 01:59:24;;;;;;;;;;;13.30;68.30;;;;;;5034334;28;19916;-85
2022/09/28 02:01:55;;;;;;;;;;;13.30;68.30;;;;;;5034622;28;19967;-84
2022/09/28 02:04:41;;;;;;;;;;;13.30;69.00;;;;;;5034415;28;19917;-85
2022/09/28 02:07:13;;;;;;;;;;;13.30;68.40;;;;;;5034572;28;20019;-85
2022/09/28 02:09:42;;;;;;;;;;;13.20;68.30;;;;;;5034233;28;20358;-85
2022/09/28 02:12:14;;;;;;;;;;;13.30;68.40;;;;;;5034021;28;19967;-85
2022/09/28 02:14:43;;;;;;;;;;;13.20;68.30;;;;;;5050859;28;19922;-85
2022/09/28 02:17:10;;;;;;;;;;;13.20;68.30;;;;;;5033705;28;19913;-85
2022/09/28 02:19:36;;;;;;;;;;;13.20;68.30;;;;;;5017611;28;19928;-84
2022/09/28 02:22:08;;;;;;;;;;;13.20;68.40;;;;;;5035161;28;20032;-85
2022/09/28 02:24:48;;;;;;;;;;;13.20;68.40;;;;;;5050958;28;19931;-84
2022/09/28 02:27:29;;;;;;;;;;;13.20;68.40;;;;;;5034656;28;19924;-84
2022/09/28 02:29:54;;;;;;;;;;;13.10;68.30;;;;;;5034469;28;20003;-84
2022/09/28 02:32:20;;;;;;;;;;;13.20;68.40;;;;;;5017380;28;19952;-83
2022/09/28 02:34:46;;;;;;;;;;;13.20;68.40;;;;;;5034094;28;20015;-84
2022/09/28 02:37:12;;;;;;;;;;;13.10;68.40;;;;;;5034090;28;19913;-84
2022/09/28 02:39:37;;;;;;;;;;;13.10;68.40;;;;;;5033901;28;20395;-84
2022/09/28 02:42:03;;;;;;;;;;;13.10;68.40;;;;;;5034127;28;19942;-84
2022/09/28 02:44:32;;;;;;;;;;;13.10;68.40;;;;;;5034611;28;19984;-85
2022/09/28 02:47:15;;;;;;;;;;;13.10;68.40;;;;;;5034275;28;20007;-84
2022/09/28 02:49:47;;;;;;;;;;;13.10;68.40;;;;;;5034311;28;20296;-84
2022/09/28 02:52:32;;;;;;;;;;;13.10;68.40;;;;;;5050250;28;19913;-84
2022/09/28 02:55:01;;;;;;;;;;;13.10;68.40;;;;;;5033945;28;20007;-85
2022/09/28 02:57:37;;;;;;;;;;;13.10;68.50;;;;;;5050805;28;19909;-84
2022/09/28 03:00:07;;;;;;;;;;;13.00;68.40;;;;;;5033877;28;19913;-84
2022/09/28 03:02:53;;;;;;;;;;;13.00;68.40;;;;;;5050269;28;19919;-84
2022/09/28 03:05:34;;;;;;;;;;;13.00;68.50;;;;;;5033103;28;19978;-85
2022/09/28 03:08:02;;;;;;;;;;;13.00;68.40;;;;;;5050237;28;20400;-83
2022/09/28 03:10:30;;;;;;;;;;;13.00;68.40;;;;;;5034223;28;19909;-85
2022/09/28 03:12:56;;;;;;;;;;;13.00;68.50;;;;;;5034646;28;19921;-84
2022/09/28 03:15:24;;;;;;;;;;;13.00;68.40;;;;;;5017558;28;19914;-84
2022/09/28 03:17:51;;;;;;;;;;;13.00;68.50;;;;;;5049843;28;19913;-84
2022/09/28 03:20:17;;;;;;;;;;;12.90;68.40;;;;;;5017067;28;20016;-85
2022/09/28 03:22:43;;;;;;;;;;;13.00;68.50;;;;;;5033232;28;19921;-83
2022/09/28 03:25:09;;;;;;;;;;;13.00;68.50;;;;;;5033413;28;19924;-84
2022/09/28 03:27:36;;;;;;;;;;;12.90;68.40;;;;;;5033887;28;19921;-85
2022/09/28 03:30:03;;;;;;;;;;;12.90;68.40;;;;;;5036342;28;19966;-84
2022/09/28 03:32:28;;;;;;;;;;;12.90;68.50;;;;;;5053551;28;19913;-84
2022/09/28 03:34:54;;;;;;;;;;;12.90;68.50;;;;;;5037304;28;20373;-84
2022/09/28 03:37:20;;;;;;;;;;;12.90;68.50;;;;;;5036782;28;19924;-84
2022/09/28 03:39:46;;;;;;;;;;;12.90;68.50;;;;;;5020567;28;19924;-84
2022/09/28 03:42:11;;;;;;;;;;;12.90;68.50;;;;;;5037310;28;19920;-83
2022/09/28 03:44:41;;;;;;;;;;;12.90;68.50;;;;;;5037053;28;19920;-84
2022/09/28 03:47:08;;;;;;;;;;;12.90;68.50;;;;;;5053604;28;20381;-83
2022/09/28 03:49:35;;;;;;;;;;;12.90;68.50;;;;;;5037619;28;19916;-83
2022/09/28 03:52:01;;;;;;;;;;;12.90;68.50;;;;;;5037065;28;19917;-83
2022/09/28 03:54:26;;;;;;;;;;;12.90;68.50;;;;;;5036924;28;19948;-84
2022/09/28 03:56:52;;;;;;;;;;;12.90;68.50;;;;;;5037062;28;19957;-84
2022/09/28 03:59:18;;;;;;;;;;;12.90;68.50;;;;;;5037151;28;19917;-84
2022/09/28 04:01:43;;;;;;;;;;;12.90;68.50;;;;;;5036715;28;19932;-85
2022/09/28 04:04:12;;;;;;;;;;;12.90;68.50;;;;;;5037003;28;19928;-85
2022/09/28 04:06:38;;;;;;;;;;;12.90;68.60;;;;;;5036893;28;19970;-84
2022/09/28 04:09:04;;;;;;;;;;;12.90;68.50;;;;;;5053686;28;19920;-84
2022/09/28 04:11:30;;;;;;;;;;;12.90;68.50;;;;;;5036700;28;19909;-84
2022/09/28 04:13:57;;;;;;;;;;;12.90;68.60;;;;;;5053149;28;19935;-85
2022/09/28 04:16:23;;;;;;;;;;;12.90;68.60;;;;;;5036358;28;19913;-84
2022/09/28 04:19:05;;;;;;;;;;;12.90;68.60;;;;;;5036733;28;20295;-85
2022/09/28 04:21:45;;;;;;;;;;;12.90;68.60;;;;;;5036585;28;20012;-84
2022/09/28 04:24:13;;;;;;;;;;;12.90;68.60;;;;;;5037098;28;19924;-84
2022/09/28 04:26:39;;;;;;;;;;;12.90;68.60;;;;;;5020631;28;19921;-85
2022/09/28 04:29:17;;;;;;;;;;;12.80;68.60;;;;;;5036391;28;20438;-85
2022/09/28 04:31:54;;;;;;;;;;;12.80;68.50;;;;;;5036345;28;20358;-84
2022/09/28 04:34:26;;;;;;;;;;;12.80;68.50;;;;;;5037014;28;19963;-85
2022/09/28 04:36:51;;;;;;;;;;;12.90;68.60;;;;;;5037438;28;19917;-84
2022/09/28 04:39:20;;;;;;;;;;;12.80;68.60;;;;;;5036477;28;20008;-84
2022/09/28 04:41:50;;;;;;;;;;;12.80;68.60;;;;;;5034993;28;19975;-84
2022/09/28 04:44:15;;;;;;;;;;;12.80;68.60;;;;;;5035652;28;19920;-84
2022/09/28 04:46:41;;;;;;;;;;;12.80;68.90;;;;;;5035918;28;20333;-85
2022/09/28 04:49:35;;;;;;;;;;;12.80;68.60;;;;;;5036174;28;20012;-85
2022/09/28 04:52:09;;;;;;;;;;;12.80;68.60;;;;;;5035904;28;19921;-85
2022/09/28 04:54:36;;;;;;;;;;;12.80;68.60;;;;;;5020231;28;19921;-85
2022/09/28 04:57:03;;;;;;;;;;;12.80;68.60;;;;;;5035680;28;19910;-84
2022/09/28 04:59:29;;;;;;;;;;;12.80;68.70;;;;;;5035374;28;19917;-84
2022/09/28 05:01:55;;;;;;;;;;;12.80;68.60;;;;;;5035928;28;19920;-83
2022/09/28 05:04:39;;;;;;;;;;;12.80;68.60;;;;;;5036438;28;19928;-82
2022/09/28 05:07:34;;;;;;;;;;;12.80;68.70;;;;;;5027350;28;20000;-84
2022/09/28 05:10:02;;;;;;;;;;;12.80;68.60;;;;;;5035635;28;19913;-84
2022/09/28 05:12:30;;;;;;;;;;;12.80;68.60;;;;;;5019163;28;19913;-85
2022/09/28 05:14:56;;;;;;;;;;;12.70;68.60;;;;;;5035010;28;19940;-85
2022/09/28 05:17:21;;;;;;;;;;;12.70;68.50;;;;;;5018827;28;19909;-85
2022/09/28 05:20:13;;;;;;;;;;;12.70;68.50;;;;;;5019701;28;20289;-84
2022/09/28 05:22:40;;;;;;;;;;;12.70;68.60;;;;;;5035768;28;19928;-85
2022/09/28 05:25:07;;;;;;;;;;;12.70;68.60;;;;;;5035504;28;19917;-85
2022/09/28 05:27:44;;;;;;;;;;;12.70;68.60;;;;;;5035111;28;19921;-85
2022/09/28 05:30:29;;;;;;;;;;;12.60;68.50;;;;;;5037682;28;19917;-84
2022/09/28 05:33:20;;;;;;;;;;;12.70;68.60;;;;;;5035458;28;19913;-86
2022/09/28 05:35:54;;;;;;;;;;;12.70;68.60;;;;;;5035839;28;20303;-86
2022/09/28 05:38:20;;;;;;;;;;;12.60;68.50;;;;;;5051409;28;19913;-85
2022/09/28 05:40:46;;;;;;;;;;;12.60;68.50;;;;;;5035099;28;20258;-85
2022/09/28 05:43:11;;;;;;;;;;;12.60;68.50;;;;;;5035711;28;19913;-84
2022/09/28 05:45:37;;;;;;;;;;;12.60;68.50;;;;;;5034544;28;19917;-85
2022/09/28 05:48:03;;;;;;;;;;;12.60;68.50;;;;;;5018253;28;19921;-85
2022/09/28 05:50:29;;;;;;;;;;;12.60;68.50;;;;;;5034652;28;19936;-84
2022/09/28 05:53:02;;;;;;;;;;;12.50;68.50;;;;;;5051023;28;19919;-85
2022/09/28 05:55:28;;;;;;;;;;;12.50;69.10;;;;;;5034517;28;20265;-85
2022/09/28 05:57:56;;;;;;;;;;;12.50;68.50;;;;;;5034539;28;19914;-85
2022/09/28 06:00:22;;;;;;;;;;;12.50;68.50;;;;;;5034540;28;20016;-85
2022/09/28 06:02:59;;;;;;;;;;;12.50;68.50;;;;;;5034887;28;19952;-85
2022/09/28 06:05:26;;;;;;;;;;;12.50;68.50;;;;;;5035655;28;19913;-86
2022/09/28 06:07:53;;;;;;;;;;;12.40;68.40;;;;;;5034476;28;19920;-86
2022/09/28 06:10:19;;;;;;;;;;;12.40;68.50;;;;;;5035748;28;19920;-86
2022/09/28 06:12:46;;;;;;;;;;;12.40;68.50;;;;;;5034737;28;19916;-85
2022/09/28 06:15:14;;;;;;;;;;;12.40;68.50;;;;;;5035061;28;19963;-87
2022/09/28 06:17:40;;;;;;;;;;;12.40;68.50;;;;;;5018464;28;19913;-87
2022/09/28 06:20:25;;;;;;;;;;;12.40;68.50;;;;;;5021209;28;20265;-87
2022/09/28 06:22:56;;;;;;;;;;;12.40;68.50;;;;;;5034838;28;20016;-86
2022/09/28 06:25:23;;;;;;;;;;;12.40;68.50;;;;;;5035134;28;20082;-85
2022/09/28 06:27:55;;;;;;;;;;;12.30;68.40;;;;;;5017916;28;19960;-85
2022/09/28 06:30:21;;;;;;;;;;;12.30;68.50;;;;;;5050582;28;20411;-87
2022/09/28 06:32:48;;;;;;;;;;;12.30;68.50;;;;;;5034644;28;19951;-86
2022/09/28 06:35:14;;;;;;;;;;;12.30;68.50;;;;;;5034080;28;19913;-85
2022/09/28 06:37:43;;;;;;;;;;;12.30;68.50;;;;;;5034254;28;19913;-85
2022/09/28 06:40:09;;;;;;;;;;;12.30;68.50;;;;;;5034576;28;19917;-86
2022/09/28 06:42:34;;;;;;;;;;;12.30;68.50;;;;;;5033982;28;20381;-86
2022/09/28 06:45:24;;;;;;;;;;;12.20;68.50;;;;;;5034037;28;19917;-86
2022/09/28 06:48:09;;;;;;;;;;;12.20;68.50;;;;;;5034215;28;19924;-86
2022/09/28 06:50:39;;;;;;;;;;;12.20;68.50;;;;;;5033852;28;19921;-87
2022/09/28 06:53:24;;;;;;;;;;;12.20;68.50;;;;;;5034346;28;20008;-84
2022/09/28 06:56:01;;;;;;;;;;;12.20;68.60;;;;;;5034008;28;19917;-86
2022/09/28 06:58:28;;;;;;;;;;;12.20;68.60;;;;;;5050570;28;19920;-86
2022/09/28 07:00:59;;;;;;;;;;;12.20;68.50;;;;;;5017664;28;19971;-86
2022/09/28 07:03:26;;;;;;;;;;;12.20;68.60;;;;;;5050878;28;19928;-85
2022/09/28 07:06:11;;;;;;;;;;;12.20;69.20;;;;;;5038621;28;19975;-87
2022/09/28 07:08:42;;;;;;;;;;;12.20;68.60;;;;;;5038141;28;19924;-87
2022/09/28 07:11:26;;;;;;;;;;;12.20;68.60;;;;;;5037642;28;19971;-87
2022/09/28 07:14:12;;;;;;;;;;;12.20;68.60;;;;;;5028336;28;19913;-84
2022/09/28 07:16:37;;;;;;;;;;;12.20;68.60;;;;;;5021114;28;19967;-85
2022/09/28 07:19:03;;;;;;;;;;;12.20;68.60;;;;;;5038668;28;19909;-86
2022/09/28 07:21:29;;;;;;;;;;;12.20;68.60;;;;;;5039188;28;19945;-82
2022/09/28 07:23:55;;;;;;;;;;;12.20;68.60;;;;;;5005669;28;19925;-83
2022/09/28 07:26:24;;;;;;;;;;;12.20;68.60;;;;;;5039112;28;19921;-84
2022/09/28 07:29:13;;;;;;;;;;;12.20;68.60;;;;;;5016571;28;19918;-84
2022/09/28 07:31:57;;;;;;;;;;;12.20;68.70;;;;;;5038174;28;19920;-84
2022/09/28 07:34:29;;;;;;;;;;;12.20;68.60;;;;;;5037864;28;19967;-84
2022/09/28 07:37:04;;;;;;;;;;;12.20;68.70;;;;;;5022990;28;19918;-84
2022/09/28 07:39:30;;;;;;;;;;;12.20;68.70;;;;;;5036964;28;19913;-83
2022/09/28 07:41:55;;;;;;;;;;;12.20;68.70;;;;;;5037938;28;20358;-83
2022/09/28 07:44:21;;;;;;;;;;;12.20;68.70;;;;;;5036789;28;19956;-85
2022/09/28 07:46:51;;;;;;;;;;;12.20;68.70;;;;;;5037025;28;19914;-84
2022/09/28 07:49:23;;;;;;;;;;;12.20;68.70;;;;;;5021774;28;19917;-84
2022/09/28 07:52:11;;;;;;;;;;;12.20;68.70;;;;;;5023606;28;19917;-84
2022/09/28 07:54:56;;;;;;;;;;;12.20;68.70;;;;;;5037241;28;20377;-84
2022/09/28 07:57:40;;;;;;;;;;;12.20;68.70;;;;;;5037284;28;19924;-85
2022/09/28 08:00:33;;;;;;;;;;;12.20;68.70;;;;;;5037202;28;19913;-85
2022/09/28 08:02:59;;;;;;;;;;;12.20;68.70;;;;;;5036673;28;19913;-86
2022/09/28 08:05:30;;;;;;;;;;;12.20;68.70;;;;;;5036295;28;19920;-85
2022/09/28 08:07:58;;;;;;;;;;;12.20;68.70;;;;;;5037083;28;19940;-85
2022/09/28 08:10:25;;;;;;;;;;;12.20;68.70;;;;;;5036763;28;19944;-85
2022/09/28 08:13:03;;;;;;;;;;;12.20;68.70;;;;;;5022034;28;19925;-85
2022/09/28 08:15:53;;;;;;;;;;;12.20;68.70;;;;;;5053972;28;19913;-84
2022/09/28 08:18:30;;;;;;;;;;;12.30;68.70;;;;;;5036865;28;19920;-83
2022/09/28 08:23:41;;;;;;;;;;;12.30;68.70;;;;;;5053010;28;20026;-85
2022/09/28 08:26:07;;;;;;;;;;;12.30;68.70;;;;;;5036425;28;20372;-85
2022/09/28 08:28:34;;;;;;;;;;;12.30;68.70;;;;;;5036088;28;20288;-86
2022/09/28 08:31:06;;;;;;;;;;;12.30;68.70;;;;;;5036236;28;20431;-85
2022/09/28 08:34:07;;;;;;;;;;;12.30;68.70;;;;;;5028700;28;19939;-85
2022/09/28 08:36:55;;;;;;;;;;;12.30;68.70;;;;;;5036717;28;19913;-85
2022/09/28 08:39:47;;;;;;;;;;;12.30;68.70;;;;;;5037069;28;19920;-85
2022/09/28 08:42:41;;;;;;;;;;;12.40;68.80;;;;;;5037079;28;19917;-85
2022/09/28 08:45:27;;;;;;;;;;;12.40;68.80;;;;;;5036674;28;19975;-84
2022/09/28 08:51:40;;;;;;;;;;;12.40;68.80;;;;;;5052920;28;20231;-85
2022/09/28 08:54:34;;;;;;;;;;;12.40;68.70;;;;;;5037239;28;19917;-85
2022/09/28 08:57:02;;;;;;;;;;;12.40;68.70;;;;;;5052848;28;19913;-84
2022/09/28 08:59:35;;;;;;;;;;;12.50;68.80;;;;;;5035703;28;19909;-86
2022/09/28 09:02:11;;;;;;;;;;;12.50;68.80;;;;;;5052550;28;19914;-87
2022/09/28 09:04:37;;;;;;;;;;;12.50;68.80;;;;;;5035772;28;19924;-86
2022/09/28 09:07:10;;;;;;;;;;;12.60;68.80;;;;;;5037465;28;19924;-84
2022/09/28 09:10:18;;;;;;;;;;;12.60;68.80;;;;;;5035818;28;19913;-86
2022/09/28 09:13:03;;;;;;;;;;;12.70;68.80;;;;;;4963708;28;19966;-87
2022/09/28 09:15:31;;;;;;;;;;;12.70;68.80;;;;;;4979708;28;19914;-87
2022/09/28 09:18:07;;;;;;;;;;;12.80;68.80;;;;;;5012498;28;20031;-87
2022/09/28 09:20:51;;;;;;;;;;;12.80;68.80;;;;;;5035978;28;19917;-86
2022/09/28 09:23:28;;;;;;;;;;;12.90;68.70;;;;;;5035177;28;19921;-87
2022/09/28 09:25:57;;;;;;;;;;;12.90;68.60;;;;;;5034840;28;19995;-86
2022/09/28 09:28:26;;;;;;;;;;;13.00;68.60;;;;;;5036122;28;19924;-85
2022/09/28 09:31:07;;;;;;;;;;;13.10;68.60;;;;;;5035214;28;20360;-86
2022/09/28 09:33:42;;;;;;;;;;;13.10;68.50;;;;;;5035727;28;19913;-85
2022/09/28 09:36:31;;;;;;;;;;;13.20;68.40;;;;;;5025005;28;19913;-86
2022/09/28 09:39:27;;;;;;;;;;;13.30;68.40;;;;;;5049751;28;19947;-86
2022/09/28 09:42:30;;;;;;;;;;;13.40;68.40;;;;;;5041123;28;19921;-86
2022/09/28 09:45:42;;;;;;;;;;;13.40;68.30;;;;;;5040766;28;19917;-86
2022/09/28 09:48:19;;;;;;;;;;;13.50;68.30;;;;;;5039184;28;19939;-86
2022/09/28 09:50:47;;;;;;;;;;;13.60;68.30;;;;;;5035553;28;19917;-85
2022/09/28 09:53:13;;;;;;;;;;;13.70;68.30;;;;;;5034885;28;19909;-85
2022/09/28 09:55:41;;;;;;;;;;;13.80;68.30;;;;;;5034779;28;19919;-85
2022/09/28 09:58:47;;;;;;;;;;;13.80;68.20;;;;;;5017307;28;19909;-86
2022/09/28 10:01:25;;;;;;;;;;;13.90;68.20;;;;;;5034985;28;19925;-86
2022/09/28 10:04:33;;;;;;;;;;;13.90;68.20;;;;;;5031360;28;19917;-86
2022/09/28 10:07:04;;;;;;;;;;;14.00;68.20;;;;;;5034258;28;19917;-84
2022/09/28 10:09:34;;;;;;;;;;;14.10;68.20;;;;;;5034684;28;20262;-87
2022/09/28 10:12:21;;;;;;;;;;;14.20;68.30;;;;;;5051149;28;20013;-86
2022/09/28 10:14:48;;;;;;;;;;;14.20;68.30;;;;;;5034947;28;20019;-85
2022/09/28 10:17:15;;;;;;;;;;;14.30;68.30;;;;;;5034103;28;20285;-86
2022/09/28 10:20:11;;;;;;;;;;;14.40;68.30;;;;;;4999488;28;19957;-86
2022/09/28 10:22:40;;;;;;;;;;;14.50;68.30;;;;;;5035364;28;19926;-85
2022/09/28 10:25:11;;;;;;;;;;;14.50;68.30;;;;;;5034476;28;19917;-85
2022/09/28 10:27:39;;;;;;;;;;;14.60;68.30;;;;;;5050846;28;19924;-85
2022/09/28 10:30:08;;;;;;;;;;;14.70;68.20;;;;;;5034013;28;20261;-83
2022/09/28 10:32:42;;;;;;;;;;;14.70;68.20;;;;;;5033640;28;19913;-83
2022/09/28 10:35:11;;;;;;;;;;;14.80;68.20;;;;;;5033980;28;19913;-85
2022/09/28 10:38:09;;;;;;;;;;;14.90;68.20;;;;;;5033955;28;19909;-84
2022/09/28 10:40:44;;;;;;;;;;;15.00;68.20;;;;;;4989424;28;19913;-84
2022/09/28 10:43:13;;;;;;;;;;;15.00;68.10;;;;;;5050353;28;19913;-85
2022/09/28 10:45:39;;;;;;;;;;;15.00;68.10;;;;;;5033782;28;19917;-85
2022/09/28 10:48:11;;;;;;;;;;;15.10;68.20;;;;;;5034001;28;19924;-84
2022/09/28 10:50:38;;;;;;;;;;;15.20;68.30;;;;;;5034936;28;20011;-87
2022/09/28 10:53:19;;;;;;;;;;;15.20;68.30;;;;;;5018334;28;19915;-86
2022/09/28 10:56:19;;;;;;;;;;;15.30;68.30;;;;;;5034077;28;19917;-84
2022/09/28 10:58:45;;;;;;;;;;;15.30;68.40;;;;;;5050593;28;19913;-85
2022/09/28 11:01:19;;;;;;;;;;;15.30;68.40;;;;;;5018340;28;19913;-87
2022/09/28 11:03:50;;;;;;;;;;;15.40;68.50;;;;;;5050274;28;19956;-86
2022/09/28 11:06:22;;;;;;;;;;;15.40;68.50;;;;;;5034217;28;19931;-86
2022/09/28 11:08:49;;;;;;;;;;;15.40;68.50;;;;;;5050656;28;19913;-87
2022/09/28 11:11:20;;;;;;;;;;;15.50;68.60;;;;;;5017573;28;19932;-86
2022/09/28 11:13:52;;;;;;;;;;;15.50;68.60;;;;;;5034420;28;19960;-86
2022/09/28 11:16:24;;;;;;;;;;;15.60;69.00;;;;;;5050416;28;20354;-86
2022/09/28 11:18:50;;;;;;;;;;;15.60;68.70;;;;;;5033524;28;19952;-87
2022/09/28 11:21:17;;;;;;;;;;;15.60;68.70;;;;;;5034116;28;19913;-86
2022/09/28 11:24:04;;;;;;;;;;;15.60;68.70;;;;;;5034894;28;19948;-86
2022/09/28 11:26:36;;;;;;;;;;;15.70;68.80;;;;;;5033841;28;20366;-86
2022/09/28 11:29:02;;;;;;;;;;;15.70;68.90;;;;;;5050345;28;19913;-88
2022/09/28 11:31:43;;;;;;;;;;;15.70;68.90;;;;;;5034082;28;19916;-86
2022/09/28 11:34:28;;;;;;;;;;;15.80;69.00;;;;;;5035499;28;19917;-85
2022/09/28 11:37:06;;;;;;;;;;;15.80;69.00;;;;;;5033658;28;19913;-86
2022/09/28 11:39:39;;;;;;;;;;;15.80;69.00;;;;;;5033243;28;20243;-87
2022/09/28 11:42:05;;;;;;;;;;;15.80;69.00;;;;;;5033266;28;19913;-84
2022/09/28 11:44:35;;;;;;;;;;;15.90;69.00;;;;;;5050858;28;19948;-87
2022/09/28 11:47:12;;;;;;;;;;;15.90;69.00;;;;;;5034105;28;19917;-86
2022/09/28 11:49:44;;;;;;;;;;;15.90;69.00;;;;;;5050365;28;19921;-84
2022/09/28 11:52:15;;;;;;;;;;;15.90;69.10;;;;;;5054000;28;20365;-85
2022/09/28 11:54:49;;;;;;;;;;;16.00;69.10;;;;;;5036544;28;19975;-86
2022/09/28 11:57:17;;;;;;;;;;;16.00;69.10;;;;;;5037069;28;19914;-83
2022/09/28 11:59:50;;;;;;;;;;;16.00;69.10;;;;;;5037971;28;20334;-83
2022/09/28 12:02:22;;;;;;;;;;;16.00;69.20;;;;;;5040095;28;19963;-86
2022/09/28 12:05:00;;;;;;;;;;;16.10;69.20;;;;;;5040021;28;19924;-84
2022/09/28 12:07:30;;;;;;;;;;;16.10;69.20;;;;;;5040305;28;20286;-83
2022/09/28 12:10:08;;;;;;;;;;;16.10;69.20;;;;;;5020332;28;19945;-83
2022/09/28 12:12:34;;;;;;;;;;;16.10;69.30;;;;;;5036687;28;19913;-83
2022/09/28 12:15:12;;;;;;;;;;;16.10;69.30;;;;;;5052293;28;19916;-83
2022/09/28 12:17:56;;;;;;;;;;;16.20;69.30;;;;;;5036944;28;19959;-85
2022/09/28 12:20:25;;;;;;;;;;;16.20;69.30;;;;;;5036366;28;19939;-86
2022/09/28 12:22:50;;;;;;;;;;;16.20;69.30;;;;;;5037610;28;19921;-86
2022/09/28 12:25:19;;;;;;;;;;;16.30;69.40;;;;;;5036413;28;19984;-85
2022/09/28 12:27:49;;;;;;;;;;;16.30;69.30;;;;;;5036163;28;19913;-83
2022/09/28 12:30:19;;;;;;;;;;;16.30;69.30;;;;;;5053214;28;19913;-83
2022/09/28 12:32:58;;;;;;;;;;;16.40;69.30;;;;;;5036136;28;19913;-82
2022/09/28 12:35:26;;;;;;;;;;;16.40;69.30;;;;;;5036214;28;19916;-82
2022/09/28 12:38:10;;;;;;;;;;;16.40;69.30;;;;;;5036771;28;19909;-81
2022/09/28 12:40:39;;;;;;;;;;;16.50;69.30;;;;;;5052547;28;19996;-83
2022/09/28 12:43:04;;;;;;;;;;;16.50;69.30;;;;;;5053374;28;19909;-82
2022/09/28 12:45:33;;;;;;;;;;;16.50;69.20;;;;;;5036483;28;19996;-84
2022/09/28 12:48:09;;;;;;;;;;;16.60;69.20;;;;;;5052487;28;20011;-83
2022/09/28 12:50:37;;;;;;;;;;;16.60;69.20;;;;;;5035814;28;19913;-85
2022/09/28 12:53:06;;;;;;;;;;;16.60;69.20;;;;;;5035672;28;20356;-85
2022/09/28 12:55:41;;;;;;;;;;;16.60;69.10;;;;;;5035938;28;20403;-84
2022/09/28 12:58:16;;;;;;;;;;;16.60;69.10;;;;;;5052069;28;20043;-85
2022/09/28 13:00:53;;;;;;;;;;;16.70;69.10;;;;;;5036429;28;19913;-86
2022/09/28 13:03:18;;;;;;;;;;;16.70;69.10;;;;;;5051617;28;19992;-84
2022/09/28 13:06:04;;;;;;;;;;;16.70;69.00;;;;;;5051779;28;20361;-83
2022/09/28 13:08:35;;;;;;;;;;;16.70;69.10;;;;;;5036773;28;20020;-86
2022/09/28 13:11:15;;;;;;;;;;;16.80;69.00;;;;;;5035572;28;20384;-87
2022/09/28 13:13:40;;;;;;;;;;;16.80;69.00;;;;;;5052505;28;19919;-89
2022/09/28 13:16:06;;;;;;;;;;;16.80;69.00;;;;;;5036665;28;19999;-89
2022/09/28 13:18:36;;;;;;;;;;;16.90;69.00;;;;;;5052257;28;19964;-88
2022/09/28 13:21:12;;;;;;;;;;;16.90;69.00;;;;;;5036228;28;19917;-89
2022/09/28 13:23:37;;;;;;;;;;;16.90;68.90;;;;;;5035562;28;20013;-87
2022/09/28 13:26:09;;;;;;;;;;;16.90;68.90;;;;;;5052160;28;19960;-88
2022/09/28 13:28:36;;;;;;;;;;;16.90;68.90;;;;;;5035451;28;19925;-84
2022/09/28 13:31:03;;;;;;;;;;;17.00;68.90;;;;;;5051977;28;19913;-85
2022/09/28 13:33:36;;;;;;;;;;;17.00;68.90;;;;;;5035183;28;19939;-84
2022/09/28 13:36:03;;;;;;;;;;;17.00;68.80;;;;;;5034577;28;19913;-83
2022/09/28 13:38:30;;;;;;;;;;;17.00;68.80;;;;;;5034610;28;19939;-83
2022/09/28 13:41:05;;;;;;;;;;;17.10;68.80;;;;;;5034595;28;19917;-86
2022/09/28 13:43:33;;;;;;;;;;;17.10;68.80;;;;;;5035777;28;19928;-90
2022/09/28 13:46:04;;;;;;;;;;;17.10;68.70;;;;;;5035644;28;19962;-86
2022/09/28 13:48:43;;;;;;;;;;;17.10;68.70;;;;;;5035406;28;19917;-88
2022/09/28 13:51:27;;;;;;;;;;;17.10;68.70;;;;;;5034739;28;19921;-87
2022/09/28 13:53:56;;;;;;;;;;;17.10;68.70;;;;;;5050927;28;19913;-86
2022/09/28 13:56:29;;;;;;;;;;;17.10;68.60;;;;;;5034558;28;19909;-86
2022/09/28 13:59:07;;;;;;;;;;;17.10;68.60;;;;;;5034269;28;20015;-86
2022/09/28 14:01:38;;;;;;;;;;;17.10;68.60;;;;;;5034830;28;19920;-86
2022/09/28 14:04:17;;;;;;;;;;;17.10;68.60;;;;;;5034383;28;20048;-86
2022/09/28 14:06:48;;;;;;;;;;;17.20;68.60;;;;;;5034409;28;19917;-85
2022/09/28 14:09:14;;;;;;;;;;;17.10;68.60;;;;;;5035231;28;19913;-86
2022/09/28 14:11:59;;;;;;;;;;;17.20;68.60;;;;;;5051203;28;19910;-86
2022/09/28 14:14:28;;;;;;;;;;;17.10;68.50;;;;;;5050528;28;19914;-86
2022/09/28 14:17:14;;;;;;;;;;;17.10;68.50;;;;;;5035988;28;19998;-91
2022/09/28 14:19:40;;;;;;;;;;;17.20;68.60;;;;;;5036875;28;19913;-89
2022/09/28 14:22:12;;;;;;;;;;;17.10;68.50;;;;;;5038821;28;19973;-89
2022/09/28 14:24:42;;;;;;;;;;;17.10;68.50;;;;;;5038406;28;19928;-90
2022/09/28 14:27:27;;;;;;;;;;;17.10;68.50;;;;;;5052331;28;20067;-88
2022/09/28 14:30:04;;;;;;;;;;;17.10;68.40;;;;;;5034779;28;19976;-88
2022/09/28 14:32:34;;;;;;;;;;;17.10;68.40;;;;;;5035089;28;19920;-87
2022/09/28 14:35:03;;;;;;;;;;;17.10;68.40;;;;;;5034254;28;19920;-88
2022/09/28 14:43:24;;;;;;;;;;;17.10;68.40;;;;;;5035159;28;19917;-88
2022/09/28 14:46:17;;;;;;;;;;;17.10;68.30;;;;;;5034135;28;19921;-87
2022/09/28 14:48:53;;;;;;;;;;;17.10;68.30;;;;;;5034448;28;20397;-87
2022/09/28 14:51:25;;;;;;;;;;;17.10;68.30;;;;;;5033875;28;20404;-86
2022/09/28 14:53:51;;;;;;;;;;;17.00;68.30;;;;;;5051015;28;19952;-87
2022/09/28 14:56:17;;;;;;;;;;;17.00;68.20;;;;;;5034677;28;19913;-87
2022/09/28 14:58:45;;;;;;;;;;;17.10;68.30;;;;;;5018754;28;19921;-88